createdAt,value
2023-02-27T00:02:21.726Z,39.85
2023-02-27T00:04:51.646Z,36.95
2023-02-27T00:07:23.789Z,35.65
2023-02-27T00:09:52.866Z,25.92
2023-02-27T00:12:21.732Z,37.72
2023-02-27T00:19:49.911Z,21.08
2023-02-27T00:22:18.195Z,17.95
2023-02-27T00:24:48.892Z,17.38
2023-02-27T00:27:19.099Z,13.32
2023-02-27T00:29:47.000Z,30.70
2023-02-27T00:32:15.063Z,34.83
2023-02-27T00:34:42.949Z,31.77
2023-02-27T00:37:12.493Z,38.92
2023-02-27T00:39:40.567Z,37.88
2023-02-27T00:42:09.024Z,32.83
2023-02-27T00:44:37.142Z,31.25
2023-02-27T00:49:49.904Z,29.35
2023-02-27T00:52:18.232Z,29.27
2023-02-27T00:54:55.554Z,24.10
2023-02-27T00:57:24.938Z,24.73
2023-02-27T00:59:52.966Z,20.05
2023-02-27T01:02:21.105Z,20.42
2023-02-27T01:04:49.418Z,21.23
2023-02-27T01:07:17.560Z,21.42
2023-02-27T01:12:27.121Z,24.85
2023-02-27T01:14:55.376Z,22.17
2023-02-27T01:17:23.969Z,21.20
2023-02-27T01:19:54.317Z,14.20
2023-02-27T01:22:24.579Z,17.40
2023-02-27T01:24:52.589Z,15.50
2023-02-27T01:27:20.458Z,11.68
2023-02-27T01:32:30.443Z,7.60
2023-02-27T01:34:58.614Z,7.32
2023-02-27T01:37:27.079Z,5.95
2023-02-27T01:39:59.727Z,14.95
2023-02-27T01:42:29.772Z,14.82
2023-02-27T01:45:23.838Z,16.27
2023-02-27T01:47:56.065Z,18.63
2023-02-27T01:50:24.873Z,18.98
2023-02-27T01:53:00.014Z,23.50
2023-02-27T01:55:31.584Z,25.92
2023-02-27T01:58:00.384Z,22.58
2023-02-27T02:00:28.666Z,23.42
2023-02-27T02:03:16.682Z,20.20
2023-02-27T02:05:47.095Z,21.83
2023-02-27T02:08:18.732Z,24.08
2023-02-27T02:10:50.402Z,21.23
2023-02-27T02:13:19.452Z,23.13
2023-02-27T02:16:00.935Z,28.15
2023-02-27T02:18:54.381Z,26.02
2023-02-27T02:21:59.031Z,20.30
2023-02-27T02:24:57.744Z,23.08
2023-02-27T02:27:40.763Z,20.33
2023-02-27T02:30:36.057Z,20.17
2023-02-27T02:33:32.274Z,2.33
2023-02-27T02:36:04.847Z,2.08
2023-02-27T02:38:51.126Z,5.25
2023-02-27T02:41:25.653Z,3.00
2023-02-27T02:44:12.212Z,2.08
2023-02-27T02:46:51.349Z,0.90
2023-02-27T02:49:35.521Z,1.45
2023-02-27T02:52:14.905Z,0.82
2023-02-27T02:57:53.576Z,0.73
2023-02-27T03:00:29.209Z,0.90
2023-02-27T03:03:07.172Z,1.20
2023-02-27T03:05:41.255Z,1.05
2023-02-27T03:08:25.157Z,0.93
2023-02-27T03:10:58.049Z,1.55
2023-02-27T03:13:40.462Z,1.10
2023-02-27T03:16:23.233Z,1.15
2023-02-27T03:19:06.200Z,2.13
2023-02-27T03:21:42.099Z,1.92
2023-02-27T03:24:15.193Z,1.65
2023-02-27T03:26:45.838Z,1.50
2023-02-27T03:29:26.688Z,0.93
2023-02-27T03:32:01.597Z,2.00
2023-02-27T03:34:40.456Z,1.10
2023-02-27T03:37:49.038Z,0.73
2023-02-27T03:40:39.776Z,0.73
2023-02-27T03:43:52.893Z,1.73
2023-02-27T03:46:26.819Z,1.52
2023-02-27T03:48:55.540Z,1.40
2023-02-27T03:51:25.799Z,1.33
2023-02-27T03:54:35.479Z,1.25
2023-02-27T03:57:08.705Z,1.05
2023-02-27T03:59:38.242Z,1.38
2023-02-27T04:02:06.639Z,1.42
2023-02-27T04:04:36.306Z,2.20
2023-02-27T04:07:54.526Z,6.00
2023-02-27T04:10:50.134Z,8.77
2023-02-27T04:13:23.124Z,4.40
2023-02-27T04:16:03.062Z,6.43
2023-02-27T04:18:49.539Z,3.30
2023-02-27T04:21:17.371Z,3.38
2023-02-27T04:23:50.457Z,1.80
2023-02-27T04:26:30.821Z,3.28
2023-02-27T04:29:07.818Z,2.95
2023-02-27T04:31:36.016Z,3.25
2023-02-27T04:34:11.745Z,3.30
2023-02-27T04:36:54.146Z,3.30
2023-02-27T04:39:25.135Z,4.70
2023-02-27T04:42:05.567Z,4.65
2023-02-27T04:44:36.507Z,3.67
2023-02-27T04:47:07.751Z,2.55
2023-02-27T04:49:41.984Z,4.03
2023-02-27T04:52:15.923Z,3.35
2023-02-27T04:54:47.017Z,3.60
2023-02-27T04:57:21.175Z,3.38
2023-02-27T04:59:55.368Z,4.05
2023-02-27T05:02:33.036Z,12.35
2023-02-27T05:05:04.054Z,11.80
2023-02-27T05:07:47.310Z,5.97
2023-02-27T05:10:30.589Z,4.30
2023-02-27T05:13:10.860Z,5.40
2023-02-27T05:15:45.838Z,4.95
2023-02-27T05:18:18.425Z,6.30
2023-02-27T05:21:28.294Z,7.72
2023-02-27T05:24:22.319Z,7.15
2023-02-27T05:27:18.138Z,7.70
2023-02-27T05:29:50.606Z,4.03
2023-02-27T05:32:26.738Z,2.97
2023-02-27T05:35:39.260Z,3.35
2023-02-27T05:38:21.240Z,5.13
2023-02-27T05:41:01.130Z,3.08
2023-02-27T05:43:36.372Z,5.13
2023-02-27T05:48:47.841Z,4.63
2023-02-27T05:51:17.835Z,4.43
2023-02-27T05:53:51.434Z,4.65
2023-02-27T05:56:23.802Z,2.63
2023-02-27T05:58:57.042Z,2.63
2023-02-27T06:01:24.977Z,2.85
2023-02-27T06:03:54.003Z,2.22
2023-02-27T06:06:23.334Z,2.95
2023-02-27T06:08:51.573Z,4.25
2023-02-27T06:11:19.405Z,3.78
2023-02-27T06:13:47.371Z,3.03
2023-02-27T06:16:16.308Z,4.20
2023-02-27T06:18:44.202Z,2.88
2023-02-27T06:21:14.120Z,3.95
2023-02-27T06:23:41.923Z,3.22
2023-02-27T06:26:13.878Z,3.97
2023-02-27T06:28:42.709Z,4.55
2023-02-27T06:31:10.695Z,3.72
2023-02-27T06:33:38.814Z,4.35
2023-02-27T06:36:07.031Z,3.50
2023-02-27T06:38:35.069Z,3.45
2023-02-27T06:41:11.751Z,4.10
2023-02-27T06:43:40.023Z,2.78
2023-02-27T06:46:08.078Z,3.70
2023-02-27T06:48:36.130Z,2.80
2023-02-27T06:51:04.370Z,3.20
2023-02-27T06:53:32.405Z,3.38
2023-02-27T06:56:00.437Z,6.82
2023-02-27T06:58:28.377Z,3.53
2023-02-27T07:00:58.672Z,3.10
2023-02-27T07:03:26.932Z,2.22
2023-02-27T07:05:54.730Z,3.70
2023-02-27T07:08:22.908Z,4.03
2023-02-27T07:10:50.962Z,3.65
2023-02-27T07:13:19.868Z,2.85
2023-02-27T07:15:48.086Z,3.80
2023-02-27T07:18:16.164Z,4.00
2023-02-27T07:20:44.105Z,3.92
2023-02-27T07:23:12.079Z,3.35
2023-02-27T07:25:39.915Z,3.72
2023-02-27T07:28:08.050Z,4.90
2023-02-27T07:30:36.132Z,4.28
2023-02-27T07:33:04.064Z,3.40
2023-02-27T07:35:32.141Z,4.20
2023-02-27T07:37:59.991Z,3.70
2023-02-27T07:40:28.255Z,3.20
2023-02-27T07:42:56.175Z,3.15
2023-02-27T07:45:24.409Z,2.42
2023-02-27T07:47:52.322Z,2.88
2023-02-27T07:50:20.550Z,2.33
2023-02-27T07:52:48.541Z,2.22
2023-02-27T07:55:16.623Z,2.40
2023-02-27T07:57:45.506Z,2.28
2023-02-27T08:00:13.740Z,3.08
2023-02-27T08:02:41.877Z,4.70
2023-02-27T08:05:10.300Z,4.57
2023-02-27T08:07:38.173Z,3.92
2023-02-27T08:10:07.129Z,2.70
2023-02-27T08:12:35.329Z,2.97
2023-02-27T08:15:03.469Z,3.25
2023-02-27T08:17:31.770Z,2.47
2023-02-27T08:19:59.830Z,4.00
2023-02-27T08:22:27.755Z,3.03
2023-02-27T08:24:55.836Z,2.00
2023-02-27T08:27:24.489Z,3.20
2023-02-27T08:29:52.460Z,2.20
2023-02-27T08:32:20.544Z,4.43
2023-02-27T08:34:48.670Z,3.78
2023-02-27T08:37:16.604Z,1.95
2023-02-27T08:39:44.708Z,2.25
2023-02-27T08:42:12.943Z,2.40
2023-02-27T08:44:40.911Z,1.65
2023-02-27T08:47:08.965Z,2.72
2023-02-27T08:49:37.222Z,2.78
2023-02-27T08:52:05.852Z,1.65
2023-02-27T08:54:33.792Z,2.85
2023-02-27T08:57:01.794Z,3.03
2023-02-27T08:59:30.609Z,2.10
2023-02-27T09:01:59.312Z,3.53
2023-02-27T09:06:54.960Z,2.63
2023-02-27T09:09:26.369Z,3.08
2023-02-27T09:11:54.514Z,2.10
2023-02-27T09:14:24.329Z,3.45
2023-02-27T09:16:52.252Z,6.03
2023-02-27T09:19:20.464Z,3.20
2023-02-27T09:21:48.667Z,6.85
2023-02-27T09:24:20.457Z,4.20
2023-02-27T09:26:50.270Z,4.60
2023-02-27T09:29:19.221Z,4.18
2023-02-27T09:31:47.683Z,3.25
2023-02-27T09:36:43.880Z,2.80
2023-02-27T09:39:14.191Z,4.28
2023-02-27T09:41:55.867Z,6.55
2023-02-27T09:44:52.905Z,3.08
2023-02-27T09:47:26.701Z,2.67
2023-02-27T09:50:06.531Z,6.28
2023-02-27T09:52:37.596Z,5.68
2023-02-27T09:55:12.529Z,15.15
2023-02-27T09:58:07.138Z,7.00
2023-02-27T10:00:51.608Z,5.93
2023-02-27T10:03:37.585Z,5.97
2023-02-27T10:06:08.652Z,5.85
2023-02-27T10:08:44.876Z,5.15
2023-02-27T10:11:17.836Z,4.50
2023-02-27T10:14:13.255Z,6.53
2023-02-27T10:16:43.207Z,5.95
2023-02-27T10:19:17.426Z,4.85
2023-02-27T10:21:50.024Z,5.35
2023-02-27T10:24:24.150Z,4.47
2023-02-27T10:26:55.999Z,6.05
2023-02-27T10:29:40.163Z,6.95
2023-02-27T10:32:18.846Z,3.53
2023-02-27T10:35:11.462Z,7.82
2023-02-27T10:37:48.626Z,4.13
2023-02-27T10:40:18.115Z,13.73
2023-02-27T10:42:46.202Z,6.28
2023-02-27T10:45:16.151Z,4.70
2023-02-27T10:47:44.723Z,4.20
2023-02-27T10:50:23.186Z,5.05
2023-02-27T10:52:53.033Z,4.65
2023-02-27T10:55:28.208Z,5.10
2023-02-27T10:58:01.176Z,4.25
2023-02-27T11:00:44.277Z,4.50
2023-02-27T11:03:32.669Z,4.38
2023-02-27T11:06:07.435Z,4.38
2023-02-27T11:08:36.584Z,4.43
2023-02-27T11:11:07.389Z,4.97
2023-02-27T11:13:39.052Z,3.83
2023-02-27T11:16:09.974Z,5.95
2023-02-27T11:18:40.475Z,6.82
2023-02-27T11:21:30.037Z,5.97
2023-02-27T11:24:00.319Z,6.93
2023-02-27T11:26:38.441Z,5.13
2023-02-27T11:29:08.644Z,4.43
2023-02-27T11:31:38.562Z,4.60
2023-02-27T11:34:08.657Z,4.70
2023-02-27T11:36:46.865Z,5.07
2023-02-27T11:39:29.793Z,6.03
2023-02-27T11:42:06.106Z,4.93
2023-02-27T11:44:50.895Z,4.70
2023-02-27T11:47:34.359Z,4.65
2023-02-27T11:50:41.584Z,4.40
2023-02-27T11:53:42.301Z,4.68
2023-02-27T11:56:19.565Z,5.18
2023-02-27T11:59:12.630Z,5.68
2023-02-27T12:01:47.090Z,5.05
2023-02-27T12:04:22.330Z,7.68
2023-02-27T12:07:04.041Z,6.13
2023-02-27T12:09:46.129Z,9.93
2023-02-27T12:12:24.778Z,10.93
2023-02-27T12:15:07.521Z,11.13
2023-02-27T12:17:41.904Z,7.63
2023-02-27T12:20:23.124Z,5.45
2023-02-27T12:22:54.644Z,8.80
2023-02-27T12:26:03.642Z,5.60
2023-02-27T12:29:05.069Z,8.38
2023-02-27T12:31:41.261Z,6.45
2023-02-27T12:34:15.957Z,5.95
2023-02-27T12:36:44.029Z,7.78
2023-02-27T12:39:24.326Z,10.18
2023-02-27T12:42:22.023Z,6.68
2023-02-27T12:45:14.588Z,6.57
2023-02-27T12:47:42.746Z,8.88
2023-02-27T12:50:13.145Z,8.07
2023-02-27T12:53:14.568Z,9.88
2023-02-27T12:55:56.563Z,4.53
2023-02-27T12:58:46.018Z,6.55
2023-02-27T13:01:32.707Z,6.00
2023-02-27T13:04:43.232Z,7.05
2023-02-27T13:07:29.104Z,10.27
2023-02-27T13:10:04.390Z,8.00
2023-02-27T13:13:21.487Z,6.68
2023-02-27T13:16:14.609Z,5.45
2023-02-27T13:18:49.185Z,5.57
2023-02-27T13:21:54.673Z,10.35
2023-02-27T13:24:31.577Z,4.30
2023-02-27T13:27:00.053Z,12.00
2023-02-27T13:29:37.373Z,9.32
2023-02-27T13:32:41.295Z,14.20
2023-02-27T13:35:41.972Z,7.45
2023-02-27T13:38:32.646Z,7.70
2023-02-27T13:41:38.493Z,20.70
2023-02-27T13:44:21.888Z,15.70
2023-02-27T13:46:50.263Z,26.73
2023-02-27T13:49:30.203Z,15.65
2023-02-27T13:52:02.392Z,15.55
2023-02-27T13:54:40.224Z,10.95
2023-02-27T13:57:19.905Z,8.35
2023-02-27T14:00:21.474Z,10.52
2023-02-27T14:03:00.555Z,11.63
2023-02-27T14:05:35.212Z,21.63
2023-02-27T14:08:12.484Z,29.23
2023-02-27T14:10:51.210Z,28.85
2023-02-27T14:13:51.347Z,16.63
2023-02-27T14:16:38.253Z,15.63
2023-02-27T14:19:18.274Z,26.65
2023-02-27T14:21:57.917Z,32.35
2023-02-27T14:25:01.222Z,21.27
2023-02-27T14:27:47.444Z,23.25
2023-02-27T14:30:29.567Z,21.92
2023-02-27T14:33:03.093Z,17.40
2023-02-27T14:35:32.330Z,13.73
2023-02-27T14:38:08.654Z,11.68
2023-02-27T14:40:48.272Z,32.85
2023-02-27T14:43:18.916Z,110.72
2023-02-27T14:45:48.460Z,90.57
2023-02-27T14:48:27.038Z,29.70
2023-02-27T14:50:58.432Z,14.70
2023-02-27T14:53:27.707Z,11.30
2023-02-27T14:55:59.531Z,9.35
2023-02-27T14:58:28.065Z,11.73
2023-02-27T15:00:56.134Z,26.20
2023-02-27T15:03:35.186Z,26.23
2023-02-27T15:06:15.871Z,15.50
2023-02-27T15:08:48.550Z,11.57
2023-02-27T15:11:20.141Z,11.88
2023-02-27T15:14:01.413Z,16.00
2023-02-27T15:16:31.989Z,26.10
2023-02-27T15:19:05.232Z,12.82
2023-02-27T15:21:39.065Z,9.57
2023-02-27T15:24:21.528Z,9.63
2023-02-27T15:27:05.013Z,7.57
2023-02-27T15:30:00.331Z,8.77
2023-02-27T15:32:38.256Z,7.75
2023-02-27T15:35:17.974Z,7.38
2023-02-27T15:37:52.550Z,9.68
2023-02-27T15:40:27.039Z,7.18
2023-02-27T15:42:56.924Z,7.45
2023-02-27T15:45:36.386Z,8.48
2023-02-27T15:48:05.501Z,8.98
2023-02-27T15:53:17.379Z,4.88
2023-02-27T15:55:50.104Z,10.02
2023-02-27T15:58:28.054Z,21.58
2023-02-27T16:01:03.445Z,12.60
2023-02-27T16:03:50.086Z,8.68
2023-02-27T16:06:21.620Z,10.38
2023-02-27T16:09:06.984Z,19.23
2023-02-27T16:11:37.861Z,12.63
2023-02-27T16:14:08.924Z,10.63
2023-02-27T16:16:39.112Z,10.32
2023-02-27T16:19:29.725Z,10.75
2023-02-27T16:22:14.420Z,11.50
2023-02-27T16:24:43.854Z,9.93
2023-02-27T16:27:20.471Z,10.25
2023-02-27T16:29:49.106Z,9.95
2023-02-27T16:32:27.974Z,11.65
2023-02-27T16:35:15.852Z,10.48
2023-02-27T16:37:46.748Z,10.50
2023-02-27T16:40:17.843Z,7.22
2023-02-27T16:42:47.304Z,9.90
2023-02-27T16:45:19.186Z,13.80
2023-02-27T16:47:50.417Z,20.92
2023-02-27T16:50:41.464Z,24.67
2023-02-27T16:53:09.809Z,26.63
2023-02-27T16:55:40.788Z,36.13
2023-02-27T16:58:15.948Z,10.38
2023-02-27T17:03:12.575Z,19.77
2023-02-27T17:05:41.812Z,19.88
2023-02-27T17:10:38.946Z,9.10
2023-02-27T17:13:07.438Z,8.80
2023-02-27T17:15:35.718Z,18.73
2023-02-27T17:18:04.110Z,13.35
2023-02-27T17:20:32.532Z,13.65
2023-02-27T17:23:01.058Z,12.40
2023-02-27T17:25:30.339Z,10.18
2023-02-27T17:27:58.853Z,9.93
2023-02-27T17:30:27.406Z,13.57
2023-02-27T17:32:56.885Z,15.15
2023-02-27T17:35:27.053Z,9.88
2023-02-27T17:37:56.129Z,9.23
2023-02-27T17:40:24.635Z,10.77
2023-02-27T17:42:53.155Z,17.42
2023-02-27T17:45:21.922Z,19.67
2023-02-27T17:47:50.873Z,14.90
2023-02-27T17:52:47.611Z,11.48
2023-02-27T17:55:17.128Z,18.85
2023-02-27T17:57:45.717Z,17.17
2023-02-27T18:00:15.574Z,14.18
2023-02-27T18:02:45.828Z,12.00
2023-02-27T18:05:15.172Z,9.98
2023-02-27T18:07:43.727Z,10.50
2023-02-27T18:10:14.614Z,10.52
2023-02-27T18:12:43.724Z,12.35
2023-02-27T18:17:40.538Z,10.32
2023-02-27T18:20:10.463Z,20.65
2023-02-27T18:22:38.973Z,13.90
2023-02-27T18:25:07.503Z,18.10
2023-02-27T18:27:36.004Z,14.70
2023-02-27T18:30:04.898Z,13.60
2023-02-27T18:32:33.272Z,18.25
2023-02-27T18:35:02.506Z,21.95
2023-02-27T18:37:30.970Z,36.60
2023-02-27T18:39:59.464Z,24.98
2023-02-27T18:42:28.015Z,15.45
2023-02-27T18:44:56.678Z,18.98
2023-02-27T18:47:25.867Z,22.92
2023-02-27T18:49:54.438Z,12.90
2023-02-27T18:52:22.886Z,8.73
2023-02-27T18:54:51.698Z,13.57
2023-02-27T18:57:20.090Z,12.30
2023-02-27T18:59:48.674Z,11.35
2023-02-27T19:02:19.976Z,13.20
2023-02-27T19:04:49.383Z,10.80
2023-02-27T19:07:18.637Z,15.07
2023-02-27T19:09:47.335Z,14.57
2023-02-27T19:12:16.018Z,32.80
2023-02-27T19:14:44.337Z,29.98
2023-02-27T19:17:12.976Z,26.02
2023-02-27T19:19:41.570Z,23.35
2023-02-27T19:22:09.964Z,24.77
2023-02-27T19:24:38.573Z,31.48
2023-02-27T19:27:07.996Z,19.67
2023-02-27T19:29:36.756Z,33.35
2023-02-27T19:32:07.962Z,35.55
2023-02-27T19:34:36.505Z,27.50
2023-02-27T19:37:05.078Z,17.60
2023-02-27T19:39:33.326Z,19.80
2023-02-27T19:42:02.170Z,40.55
2023-02-27T19:44:30.310Z,40.35
2023-02-27T19:46:59.014Z,37.60
2023-02-27T19:49:27.669Z,33.67
2023-02-27T19:51:56.328Z,29.05
2023-02-27T19:54:25.000Z,37.47
2023-02-27T19:56:54.717Z,50.72
2023-02-27T19:59:24.882Z,33.60
2023-02-27T20:01:53.684Z,26.38
2023-02-27T20:04:22.075Z,43.60
2023-02-27T20:06:53.304Z,44.03
2023-02-27T20:09:23.595Z,33.40
2023-02-27T20:11:57.115Z,35.05
2023-02-27T20:14:25.940Z,44.17
2023-02-27T20:16:54.657Z,39.80
2023-02-27T20:19:24.618Z,28.02
2023-02-27T20:21:54.577Z,27.35
2023-02-27T20:24:24.845Z,29.92
2023-02-27T20:26:54.590Z,40.85
2023-02-27T20:29:24.975Z,29.58
2023-02-27T20:31:55.859Z,23.83
2023-02-27T20:34:26.666Z,24.05
2023-02-27T20:36:56.175Z,25.40
2023-02-27T20:39:25.296Z,20.60
2023-02-27T20:44:21.900Z,13.13
2023-02-27T20:46:50.401Z,16.92
2023-02-27T20:49:19.060Z,35.65
2023-02-27T20:51:46.972Z,29.40
2023-02-27T20:54:20.774Z,22.95
2023-02-27T20:56:54.834Z,24.83
2023-02-27T20:59:25.781Z,27.13
2023-02-27T21:01:54.750Z,28.27
2023-02-27T21:07:16.559Z,22.42
2023-02-27T21:09:48.340Z,23.98
2023-02-27T21:12:17.554Z,27.70
2023-02-27T21:14:45.648Z,15.95
2023-02-27T21:17:14.071Z,22.70
2023-02-27T21:19:42.405Z,24.45
2023-02-27T21:22:12.679Z,32.35
2023-02-27T21:24:45.500Z,32.08
2023-02-27T21:27:14.051Z,22.67
2023-02-27T21:29:42.541Z,22.40
2023-02-27T21:34:54.820Z,23.08
2023-02-27T21:37:32.084Z,21.08
2023-02-27T21:40:02.465Z,21.20
2023-02-27T21:45:19.846Z,22.33
2023-02-27T21:47:57.646Z,22.33
2023-02-27T21:50:29.618Z,16.27
2023-02-27T21:52:58.027Z,18.70
2023-02-27T21:55:36.083Z,17.90
2023-02-27T21:58:04.532Z,18.52
2023-02-27T22:03:14.455Z,19.88
2023-02-27T22:05:53.130Z,17.30
2023-02-27T22:08:21.168Z,19.42
2023-02-27T22:13:32.602Z,21.20
2023-02-27T22:16:05.614Z,20.02
2023-02-27T22:18:34.295Z,18.88
2023-02-27T22:21:03.066Z,22.33
2023-02-27T22:23:31.448Z,21.67
2023-02-27T22:26:07.511Z,22.20
2023-02-27T22:28:39.324Z,24.58
2023-02-27T22:31:19.750Z,28.67
2023-02-27T22:33:50.360Z,25.92
2023-02-27T22:36:24.746Z,25.05
2023-02-27T22:38:53.580Z,26.77
2023-02-27T22:41:28.165Z,39.03
2023-02-27T22:43:57.119Z,29.90
2023-02-27T22:46:39.833Z,23.63
2023-02-27T22:49:12.620Z,18.88
2023-02-27T22:51:40.814Z,23.85
2023-02-27T22:54:10.382Z,22.45
2023-02-27T22:56:40.400Z,21.23
2023-02-27T22:59:08.759Z,19.42
2023-02-27T23:01:37.965Z,22.20
2023-02-27T23:04:08.979Z,18.60
2023-02-27T23:06:43.156Z,19.30
2023-02-27T23:09:17.265Z,15.95
2023-02-27T23:11:45.225Z,13.45
2023-02-27T23:14:13.735Z,14.88
2023-02-27T23:16:45.885Z,16.60
2023-02-27T23:19:16.447Z,14.73
2023-02-27T23:21:44.404Z,13.55
2023-02-27T23:24:18.095Z,14.05
2023-02-27T23:26:50.462Z,13.77
2023-02-27T23:29:19.091Z,16.38
2023-02-27T23:31:47.346Z,15.85
2023-02-27T23:34:15.349Z,15.18
2023-02-27T23:36:44.258Z,16.42
2023-02-27T23:39:12.253Z,14.52
2023-02-27T23:41:40.433Z,19.10
2023-02-27T23:44:08.300Z,17.75
2023-02-27T23:46:36.199Z,15.48
2023-02-27T23:49:04.115Z,15.27
2023-02-27T23:51:33.622Z,16.27
2023-02-27T23:54:01.841Z,17.63
2023-02-27T23:56:31.198Z,17.40
2023-02-27T23:59:02.397Z,16.90
